Airfield :
LOGIN :

Register | Disclaimer

   EN    FR    IT 

 










Legend :    VFR   Marginal VFR   IFR   Intensive IFR   Very Intensive IFR
Visi :
Ceiling :
>= 8 km
>= 3000ft
5 to 8 km
1000 to 3000 ft
1500m to 5 km
500 to 1000 ft
800 to 1500m
200 to 500 ft
< 800m
< 200 ft
Symbols :   Thunderstorms  Fog  Heavy snow  Heavy precipitations  Wind > 20 kt
SIGMETs :     Misc.  Thunderstorms  Icing  Turbulence  Mountain Waves  Volcanic Ashes







- Airport Elevation : 265 ft
- Download approach charts


LFMC - Le Luc

CURRENT METAR :
  • 192200Z AUTO 00000KT 9999 ////// 04/01 Q1001

EXPIRED METARs :
  • 192130Z AUTO 00000KT 9999 ////// 05/02 Q1001
  • 192100Z AUTO 03003KT 9999 ////// 06/01 Q1001
  • 192030Z AUTO 36003KT 9999 ////// 06/02 Q1001
  • 192000Z AUTO 03004KT 9999 ////// 07/02 Q1001
  • 191930Z AUTO 03003KT 360V070 9999 ////// 07/02 Q1001

TAF N/A
No reported NOTAMs for that airfield.
1 SIGMET reported for the Marseille FIR (LFMM) :
 
Embedded thunderstorms
LFMM SIGMET 8 VALID 192200/200200 LFPW
LFMM MARSEILLE FIR/UIR EMBD TS FCST SE OF LINE N4045 E00800 - N3900 E00545 TOP FL330 MOV E 25KT NC=



MET'MAP, your aeronautical weather chart ! - Copyright ORBIFLY December 2007 - Disclaimer

ORBIFLY MET'MAP TEAM :

Programming & Development : Alexandra Zaïnal
Concept & Development : Baudouin d'Aumeries
Co-Development & Prog : Marc-Olivier Méhu
Technical & hardware support : Manuel Goepfert

Contact : metmap@orbifly.com




SOURCES & CREDITS :

   NOAA